Terminal Aerodrome Forecast
Issued by NWS Buffalo, NY

Home | Current Version | Previous Version | Text Only | Print | Product List | Glossary On
Versions: 1 2 3 4 5 6 7 8 9 10 11 12 13 14 15 16 17 18 19 20 21 22 23 24 25 26 27
000
FTUS41 KBUF 280200 AAA
TAFBUF
TAF AMD
KBUF 280224Z 2802/2824 36005KT P6SM SCT040
     FM280400 34005KT P6SM BKN035
     FM280700 28004KT P6SM BKN025
     FM281700 34008KT P6SM BKN040
     FM282000 26008KT P6SM SCT040=

USA.gov is the U.S. government's official web portal to all federal, state and local government web resources and services.